sensor_id;sensor_type;location;lat;lon;timestamp;pressure;altitude;pressure_sealevel;temperature;humidity
7157;BME280;3620;49.862;8.758;2023-02-19T00:00:04;99644.81;;;12.54;89.04
7157;BME280;3620;49.862;8.758;2023-02-19T00:02:30;99650.69;;;12.42;89.30
7157;BME280;3620;49.862;8.758;2023-02-19T00:04:57;99658.38;;;12.65;88.25
7157;BME280;3620;49.862;8.758;2023-02-19T00:07:24;99656.03;;;12.59;88.82
7157;BME280;3620;49.862;8.758;2023-02-19T00:09:50;99646.13;;;12.64;88.77
7157;BME280;3620;49.862;8.758;2023-02-19T00:12:18;99643.56;;;12.44;89.83
7157;BME280;3620;49.862;8.758;2023-02-19T00:14:44;99638.00;;;12.50;89.61
7157;BME280;3620;49.862;8.758;2023-02-19T00:17:11;99639.97;;;12.45;89.64
7157;BME280;3620;49.862;8.758;2023-02-19T00:19:37;99624.66;;;12.53;89.28
7157;BME280;3620;49.862;8.758;2023-02-19T00:22:04;99629.63;;;12.40;90.19
7157;BME280;3620;49.862;8.758;2023-02-19T00:24:31;99629.50;;;12.62;89.78
7157;BME280;3620;49.862;8.758;2023-02-19T00:26:57;99627.06;;;12.93;88.11
7157;BME280;3620;49.862;8.758;2023-02-19T00:29:26;99625.81;;;12.83;87.83
7157;BME280;3620;49.862;8.758;2023-02-19T00:31:53;99617.25;;;12.78;88.36
7157;BME280;3620;49.862;8.758;2023-02-19T00:34:19;99621.25;;;12.87;88.49
7157;BME280;3620;49.862;8.758;2023-02-19T00:36:45;99624.84;;;12.67;88.87
7157;BME280;3620;49.862;8.758;2023-02-19T00:39:14;99616.44;;;12.59;89.11
7157;BME280;3620;49.862;8.758;2023-02-19T00:41:43;99609.44;;;12.58;88.91
7157;BME280;3620;49.862;8.758;2023-02-19T00:44:11;99621.09;;;12.35;90.45
7157;BME280;3620;49.862;8.758;2023-02-19T00:46:41;99614.72;;;12.58;89.88
7157;BME280;3620;49.862;8.758;2023-02-19T00:49:13;99618.31;;;12.57;90.18
7157;BME280;3620;49.862;8.758;2023-02-19T00:51:40;99612.97;;;12.76;89.15
7157;BME280;3620;49.862;8.758;2023-02-19T00:54:07;99627.13;;;12.56;90.05
7157;BME280;3620;49.862;8.758;2023-02-19T00:56:33;99626.13;;;12.59;89.58
7157;BME280;3620;49.862;8.758;2023-02-19T00:59:00;99618.72;;;12.11;92.60
7157;BME280;3620;49.862;8.758;2023-02-19T01:01:26;99620.41;;;12.12;92.62
7157;BME280;3620;49.862;8.758;2023-02-19T01:03:54;99634.50;;;12.31;91.94
7157;BME280;3620;49.862;8.758;2023-02-19T01:06:21;99636.41;;;12.09;93.06
7157;BME280;3620;49.862;8.758;2023-02-19T01:08:48;99622.72;;;12.38;91.92
7157;BME280;3620;49.862;8.758;2023-02-19T01:11:16;99613.75;;;12.42;91.22
7157;BME280;3620;49.862;8.758;2023-02-19T01:13:44;99611.03;;;12.62;90.41
7157;BME280;3620;49.862;8.758;2023-02-19T01:16:12;99604.63;;;12.30;91.93
7157;BME280;3620;49.862;8.758;2023-02-19T01:18:39;99602.63;;;12.17;92.69
7157;BME280;3620;49.862;8.758;2023-02-19T01:21:10;99605.47;;;12.31;92.31
7157;BME280;3620;49.862;8.758;2023-02-19T01:23:38;99605.34;;;12.15;93.27
7157;BME280;3620;49.862;8.758;2023-02-19T01:26:06;99602.63;;;12.17;93.16
7157;BME280;3620;49.862;8.758;2023-02-19T01:28:32;99613.03;;;12.57;91.49
7157;BME280;3620;49.862;8.758;2023-02-19T01:31:00;99603.03;;;12.45;92.31
7157;BME280;3620;49.862;8.758;2023-02-19T01:33:27;99593.00;;;12.53;91.63
7157;BME280;3620;49.862;8.758;2023-02-19T01:35:53;99564.75;;;12.18;93.62
7157;BME280;3620;49.862;8.758;2023-02-19T01:38:21;99594.22;;;12.46;93.08
7157;BME280;3620;49.862;8.758;2023-02-19T01:40:53;99586.38;;;12.26;93.53
7157;BME280;3620;49.862;8.758;2023-02-19T01:43:20;99591.66;;;12.26;93.20
7157;BME280;3620;49.862;8.758;2023-02-19T01:45:46;99591.19;;;12.16;93.91
7157;BME280;3620;49.862;8.758;2023-02-19T01:48:17;99595.34;;;12.59;92.31
7157;BME280;3620;49.862;8.758;2023-02-19T01:50:48;99581.81;;;12.11;93.75
7157;BME280;3620;49.862;8.758;2023-02-19T01:53:20;99583.41;;;11.95;96.00
7157;BME280;3620;49.862;8.758;2023-02-19T01:55:51;99569.66;;;12.07;95.78
7157;BME280;3620;49.862;8.758;2023-02-19T01:58:20;99577.50;;;11.90;97.18
7157;BME280;3620;49.862;8.758;2023-02-19T02:00:47;99569.38;;;11.94;96.16
7157;BME280;3620;49.862;8.758;2023-02-19T02:03:16;99566.25;;;11.86;97.49
7157;BME280;3620;49.862;8.758;2023-02-19T02:05:48;99571.25;;;12.11;96.02
7157;BME280;3620;49.862;8.758;2023-02-19T02:08:16;99567.19;;;12.04;96.27
7157;BME280;3620;49.862;8.758;2023-02-19T02:11:01;99575.50;;;12.13;96.17
7157;BME280;3620;49.862;8.758;2023-02-19T02:13:29;99559.41;;;12.19;95.76
7157;BME280;3620;49.862;8.758;2023-02-19T02:16:04;99556.56;;;12.24;95.40
7157;BME280;3620;49.862;8.758;2023-02-19T02:18:41;99562.28;;;12.15;95.71
7157;BME280;3620;49.862;8.758;2023-02-19T02:21:29;99537.53;;;11.99;97.01
7157;BME280;3620;49.862;8.758;2023-02-19T02:24:10;99552.44;;;12.00;97.55
7157;BME280;3620;49.862;8.758;2023-02-19T02:26:54;99542.56;;;11.85;97.77
7157;BME280;3620;49.862;8.758;2023-02-19T02:32:39;99539.44;;;11.76;99.01
7157;BME280;3620;49.862;8.758;2023-02-19T02:35:20;99538.31;;;12.01;97.42
7157;BME280;3620;49.862;8.758;2023-02-19T02:37:48;99532.31;;;12.16;96.49
7157;BME280;3620;49.862;8.758;2023-02-19T02:40:16;99534.47;;;12.08;96.92
7157;BME280;3620;49.862;8.758;2023-02-19T02:42:43;99525.91;;;12.03;97.24
7157;BME280;3620;49.862;8.758;2023-02-19T02:45:25;99523.91;;;11.89;97.46
7157;BME280;3620;49.862;8.758;2023-02-19T02:48:06;99534.03;;;11.80;98.51
7157;BME280;3620;49.862;8.758;2023-02-19T02:50:39;99528.91;;;11.76;98.54
7157;BME280;3620;49.862;8.758;2023-02-19T02:53:10;99537.25;;;12.05;97.52
7157;BME280;3620;49.862;8.758;2023-02-19T02:55:56;99533.59;;;12.07;96.60
7157;BME280;3620;49.862;8.758;2023-02-19T02:58:24;99525.34;;;12.15;96.70
7157;BME280;3620;49.862;8.758;2023-02-19T03:00:55;99524.06;;;12.05;97.06
7157;BME280;3620;49.862;8.758;2023-02-19T03:03:44;99529.13;;;12.09;96.87
7157;BME280;3620;49.862;8.758;2023-02-19T03:06:14;99528.13;;;12.12;97.70
7157;BME280;3620;49.862;8.758;2023-02-19T03:08:44;99522.56;;;12.18;96.83
7157;BME280;3620;49.862;8.758;2023-02-19T03:11:13;99493.66;;;11.98;97.77
7157;BME280;3620;49.862;8.758;2023-02-19T03:14:01;99484.19;;;11.75;98.50
7157;BME280;3620;49.862;8.758;2023-02-19T03:16:47;99480.75;;;11.92;97.97
7157;BME280;3620;49.862;8.758;2023-02-19T03:19:43;99491.72;;;11.83;98.43
7157;BME280;3620;49.862;8.758;2023-02-19T03:22:14;99497.41;;;11.73;98.99
7157;BME280;3620;49.862;8.758;2023-02-19T03:24:44;99500.13;;;11.91;98.14
7157;BME280;3620;49.862;8.758;2023-02-19T03:27:32;99503.56;;;11.93;99.00
7157;BME280;3620;49.862;8.758;2023-02-19T03:30:02;99500.47;;;11.83;100.00
7157;BME280;3620;49.862;8.758;2023-02-19T03:32:33;99500.13;;;11.91;99.01
7157;BME280;3620;49.862;8.758;2023-02-19T03:35:06;99515.22;;;12.06;98.68
7157;BME280;3620;49.862;8.758;2023-02-19T03:37:38;99509.66;;;12.12;97.99
7157;BME280;3620;49.862;8.758;2023-02-19T03:40:07;99512.66;;;11.86;99.30
7157;BME280;3620;49.862;8.758;2023-02-19T03:42:38;99511.47;;;11.93;99.16
7157;BME280;3620;49.862;8.758;2023-02-19T03:45:23;99507.53;;;11.83;98.94
7157;BME280;3620;49.862;8.758;2023-02-19T03:47:54;99509.00;;;12.07;97.65
7157;BME280;3620;49.862;8.758;2023-02-19T03:50:27;99511.09;;;12.19;97.17
7157;BME280;3620;49.862;8.758;2023-02-19T03:53:01;99520.94;;;11.97;98.12
7157;BME280;3620;49.862;8.758;2023-02-19T03:55:36;99517.38;;;11.98;98.30
7157;BME280;3620;49.862;8.758;2023-02-19T03:58:08;99526.06;;;12.00;98.13
7157;BME280;3620;49.862;8.758;2023-02-19T04:00:40;99534.31;;;12.29;96.82
7157;BME280;3620;49.862;8.758;2023-02-19T04:03:14;99533.59;;;12.07;97.84
7157;BME280;3620;49.862;8.758;2023-02-19T04:05:47;99544.59;;;12.17;97.19
7157;BME280;3620;49.862;8.758;2023-02-19T04:08:17;99545.44;;;11.99;98.17
7157;BME280;3620;49.862;8.758;2023-02-19T04:10:46;99542.16;;;11.94;97.57
7157;BME280;3620;49.862;8.758;2023-02-19T04:13:16;99542.41;;;11.69;99.36
7157;BME280;3620;49.862;8.758;2023-02-19T04:15:45;99548.09;;;11.60;100.00
7157;BME280;3620;49.862;8.758;2023-02-19T04:18:15;99541.28;;;11.74;99.48
7157;BME280;3620;49.862;8.758;2023-02-19T04:20:45;99539.78;;;11.49;100.00
7157;BME280;3620;49.862;8.758;2023-02-19T04:23:13;99540.41;;;11.35;100.00
7157;BME280;3620;49.862;8.758;2023-02-19T04:25:44;99537.31;;;11.64;100.00
7157;BME280;3620;49.862;8.758;2023-02-19T04:28:13;99537.59;;;11.78;99.77
7157;BME280;3620;49.862;8.758;2023-02-19T04:30:41;99533.19;;;11.79;99.11
7157;BME280;3620;49.862;8.758;2023-02-19T04:33:07;99550.75;;;11.58;100.00
7157;BME280;3620;49.862;8.758;2023-02-19T04:35:34;99543.16;;;11.72;99.66
7157;BME280;3620;49.862;8.758;2023-02-19T04:38:02;99545.19;;;11.46;100.00
7157;BME280;3620;49.862;8.758;2023-02-19T04:40:28;99548.91;;;11.60;99.68
7157;BME280;3620;49.862;8.758;2023-02-19T04:42:55;99546.28;;;11.81;98.53
7157;BME280;3620;49.862;8.758;2023-02-19T04:45:21;99547.50;;;11.92;97.75
7157;BME280;3620;49.862;8.758;2023-02-19T04:47:48;99555.38;;;11.73;100.00
7157;BME280;3620;49.862;8.758;2023-02-19T04:50:15;99550.91;;;11.55;100.00
7157;BME280;3620;49.862;8.758;2023-02-19T04:52:41;99547.34;;;11.56;100.00
7157;BME280;3620;49.862;8.758;2023-02-19T04:55:09;99545.19;;;11.46;100.00
7157;BME280;3620;49.862;8.758;2023-02-19T04:57:35;99538.34;;;11.62;100.00
7157;BME280;3620;49.862;8.758;2023-02-19T05:00:02;99536.88;;;11.75;100.00
7157;BME280;3620;49.862;8.758;2023-02-19T05:02:29;99546.06;;;11.46;100.00
7157;BME280;3620;49.862;8.758;2023-02-19T05:04:56;99542.75;;;11.41;100.00
7157;BME280;3620;49.862;8.758;2023-02-19T05:07:22;99548.41;;;11.52;100.00
7157;BME280;3620;49.862;8.758;2023-02-19T05:09:49;99545.91;;;11.49;100.00
7157;BME280;3620;49.862;8.758;2023-02-19T05:12:17;99540.91;;;11.43;100.00
7157;BME280;3620;49.862;8.758;2023-02-19T05:14:43;99554.47;;;11.54;100.00
7157;BME280;3620;49.862;8.758;2023-02-19T05:17:10;99562.88;;;11.22;100.00
7157;BME280;3620;49.862;8.758;2023-02-19T05:19:36;99557.88;;;11.56;100.00
7157;BME280;3620;49.862;8.758;2023-02-19T05:22:03;99556.19;;;11.55;100.00
7157;BME280;3620;49.862;8.758;2023-02-19T05:24:29;99539.06;;;11.45;100.00
7157;BME280;3620;49.862;8.758;2023-02-19T05:26:56;99548.81;;;11.23;100.00
7157;BME280;3620;49.862;8.758;2023-02-19T05:29:24;99582.00;;;11.47;100.00
7157;BME280;3620;49.862;8.758;2023-02-19T05:31:50;99567.66;;;11.34;100.00
7157;BME280;3620;49.862;8.758;2023-02-19T05:34:17;99580.16;;;11.29;100.00
7157;BME280;3620;49.862;8.758;2023-02-19T05:36:43;99587.81;;;11.55;100.00
7157;BME280;3620;49.862;8.758;2023-02-19T05:39:10;99585.00;;;11.18;100.00
7157;BME280;3620;49.862;8.758;2023-02-19T05:41:37;99594.25;;;11.28;100.00
7157;BME280;3620;49.862;8.758;2023-02-19T05:44:04;99600.56;;;11.24;100.00
7157;BME280;3620;49.862;8.758;2023-02-19T05:46:32;99599.38;;;11.31;100.00
7157;BME280;3620;49.862;8.758;2023-02-19T05:48:58;99580.28;;;11.26;100.00
7157;BME280;3620;49.862;8.758;2023-02-19T05:51:26;99570.59;;;11.27;100.00
7157;BME280;3620;49.862;8.758;2023-02-19T05:53:52;99583.44;;;11.34;100.00
7157;BME280;3620;49.862;8.758;2023-02-19T05:56:26;99586.75;;;11.39;100.00
7157;BME280;3620;49.862;8.758;2023-02-19T05:58:55;99606.09;;;11.38;100.00
7157;BME280;3620;49.862;8.758;2023-02-19T06:01:23;99600.97;;;11.35;100.00
7157;BME280;3620;49.862;8.758;2023-02-19T06:03:52;99613.13;;;11.58;100.00
7157;BME280;3620;49.862;8.758;2023-02-19T06:06:19;99613.09;;;11.39;100.00
7157;BME280;3620;49.862;8.758;2023-02-19T06:08:47;99616.63;;;11.38;100.00
7157;BME280;3620;49.862;8.758;2023-02-19T06:11:14;99624.53;;;11.38;100.00
7157;BME280;3620;49.862;8.758;2023-02-19T06:13:40;99625.38;;;11.19;100.00
7157;BME280;3620;49.862;8.758;2023-02-19T06:16:08;99624.59;;;11.17;100.00
7157;BME280;3620;49.862;8.758;2023-02-19T06:18:35;99628.50;;;11.48;100.00
7157;BME280;3620;49.862;8.758;2023-02-19T06:21:07;99620.09;;;11.19;100.00
7157;BME280;3620;49.862;8.758;2023-02-19T06:23:34;99626.66;;;11.30;100.00
7157;BME280;3620;49.862;8.758;2023-02-19T06:26:06;99635.63;;;11.25;100.00
7157;BME280;3620;49.862;8.758;2023-02-19T06:28:32;99634.44;;;11.33;100.00
7157;BME280;3620;49.862;8.758;2023-02-19T06:30:59;99643.94;;;11.36;100.00
7157;BME280;3620;49.862;8.758;2023-02-19T06:33:26;99648.38;;;11.35;100.00
7157;BME280;3620;49.862;8.758;2023-02-19T06:35:53;99657.09;;;11.57;100.00
7157;BME280;3620;49.862;8.758;2023-02-19T06:38:21;99651.41;;;11.68;100.00
7157;BME280;3620;49.862;8.758;2023-02-19T06:40:47;99653.59;;;11.57;100.00
7157;BME280;3620;49.862;8.758;2023-02-19T06:43:14;99650.00;;;12.00;100.00
7157;BME280;3620;49.862;8.758;2023-02-19T06:45:40;99655.28;;;11.80;100.00
7157;BME280;3620;49.862;8.758;2023-02-19T06:48:07;99651.03;;;11.96;100.00
7157;BME280;3620;49.862;8.758;2023-02-19T06:50:34;99659.50;;;11.84;100.00
7157;BME280;3620;49.862;8.758;2023-02-19T06:53:00;99656.38;;;11.74;100.00
7157;BME280;3620;49.862;8.758;2023-02-19T06:55:28;99666.56;;;11.61;100.00
7157;BME280;3620;49.862;8.758;2023-02-19T06:57:54;99669.66;;;11.72;100.00
7157;BME280;3620;49.862;8.758;2023-02-19T07:00:21;99671.75;;;11.43;100.00
7157;BME280;3620;49.862;8.758;2023-02-19T07:02:48;99678.94;;;11.39;100.00
7157;BME280;3620;49.862;8.758;2023-02-19T07:05:20;99678.63;;;11.25;100.00
7157;BME280;3620;49.862;8.758;2023-02-19T07:07:47;99684.06;;;11.42;100.00
7157;BME280;3620;49.862;8.758;2023-02-19T07:10:14;99695.13;;;11.30;100.00
7157;BME280;3620;49.862;8.758;2023-02-19T07:12:41;99698.28;;;11.60;100.00
7157;BME280;3620;49.862;8.758;2023-02-19T07:15:08;99700.47;;;11.29;100.00
7157;BME280;3620;49.862;8.758;2023-02-19T07:17:35;99699.22;;;11.37;100.00
7157;BME280;3620;49.862;8.758;2023-02-19T07:20:02;99708.91;;;11.37;100.00
7157;BME280;3620;49.862;8.758;2023-02-19T07:22:28;99711.50;;;11.58;100.00
7157;BME280;3620;49.862;8.758;2023-02-19T07:24:55;99717.94;;;11.51;100.00
7157;BME280;3620;49.862;8.758;2023-02-19T07:27:21;99716.69;;;11.82;100.00
7157;BME280;3620;49.862;8.758;2023-02-19T07:29:49;99719.34;;;11.82;100.00
7157;BME280;3620;49.862;8.758;2023-02-19T07:32:16;99727.25;;;11.82;100.00
7157;BME280;3620;49.862;8.758;2023-02-19T07:34:42;99718.66;;;11.97;100.00
7157;BME280;3620;49.862;8.758;2023-02-19T07:37:09;99726.75;;;11.72;100.00
7157;BME280;3620;49.862;8.758;2023-02-19T07:39:35;99730.91;;;11.56;100.00
7157;BME280;3620;49.862;8.758;2023-02-19T07:42:02;99720.78;;;11.68;100.00
7157;BME280;3620;49.862;8.758;2023-02-19T07:44:29;99731.47;;;11.42;100.00
7157;BME280;3620;49.862;8.758;2023-02-19T07:46:56;99735.22;;;11.58;100.00
7157;BME280;3620;49.862;8.758;2023-02-19T07:49:23;99738.28;;;11.69;100.00
7157;BME280;3620;49.862;8.758;2023-02-19T07:51:50;99742.50;;;11.73;100.00
7157;BME280;3620;49.862;8.758;2023-02-19T07:54:16;99752.81;;;11.80;100.00
7157;BME280;3620;49.862;8.758;2023-02-19T07:56:43;99748.53;;;11.55;100.00
7157;BME280;3620;49.862;8.758;2023-02-19T07:59:09;99756.97;;;11.63;100.00
7157;BME280;3620;49.862;8.758;2023-02-19T08:01:36;99762.59;;;11.54;100.00
7157;BME280;3620;49.862;8.758;2023-02-19T08:04:21;99770.25;;;11.60;100.00
7157;BME280;3620;49.862;8.758;2023-02-19T08:06:48;99775.28;;;11.88;100.00
7157;BME280;3620;49.862;8.758;2023-02-19T08:09:14;99772.88;;;11.60;100.00
7157;BME280;3620;49.862;8.758;2023-02-19T08:11:41;99775.00;;;11.74;100.00
7157;BME280;3620;49.862;8.758;2023-02-19T08:14:25;99774.31;;;11.91;100.00
7157;BME280;3620;49.862;8.758;2023-02-19T08:16:52;99768.16;;;11.90;100.00
7157;BME280;3620;49.862;8.758;2023-02-19T08:19:20;99765.06;;;12.01;100.00
7157;BME280;3620;49.862;8.758;2023-02-19T08:21:48;99769.25;;;11.85;99.63
7157;BME280;3620;49.862;8.758;2023-02-19T08:24:15;99774.63;;;11.83;99.48
7157;BME280;3620;49.862;8.758;2023-02-19T08:26:41;99766.00;;;12.20;99.02
7157;BME280;3620;49.862;8.758;2023-02-19T08:29:08;99776.91;;;12.51;98.38
7157;BME280;3620;49.862;8.758;2023-02-19T08:31:34;99797.19;;;12.69;95.73
7157;BME280;3620;49.862;8.758;2023-02-19T08:34:01;99801.69;;;12.67;96.29
7157;BME280;3620;49.862;8.758;2023-02-19T08:36:28;99811.25;;;12.31;96.99
7157;BME280;3620;49.862;8.758;2023-02-19T08:38:56;99818.88;;;12.37;96.12
7157;BME280;3620;49.862;8.758;2023-02-19T08:41:22;99822.31;;;12.19;95.93
7157;BME280;3620;49.862;8.758;2023-02-19T08:43:49;99830.91;;;12.24;96.14
7157;BME280;3620;49.862;8.758;2023-02-19T08:46:16;99838.53;;;12.10;95.98
7157;BME280;3620;49.862;8.758;2023-02-19T08:48:42;99831.50;;;11.89;97.30
7157;BME280;3620;49.862;8.758;2023-02-19T08:51:10;99834.31;;;12.06;96.23
7157;BME280;3620;49.862;8.758;2023-02-19T08:53:38;99845.94;;;12.22;96.39
7157;BME280;3620;49.862;8.758;2023-02-19T08:56:07;99860.03;;;12.41;93.95
7157;BME280;3620;49.862;8.758;2023-02-19T08:58:34;99865.00;;;12.07;96.98
7157;BME280;3620;49.862;8.758;2023-02-19T09:01:02;99861.91;;;11.97;98.17
7157;BME280;3620;49.862;8.758;2023-02-19T09:03:28;99865.09;;;11.84;100.00
7157;BME280;3620;49.862;8.758;2023-02-19T09:05:55;99862.22;;;11.90;100.00
7157;BME280;3620;49.862;8.758;2023-02-19T09:08:21;99869.91;;;12.16;100.00
7157;BME280;3620;49.862;8.758;2023-02-19T09:10:56;99865.00;;;12.07;100.00
7157;BME280;3620;49.862;8.758;2023-02-19T09:13:24;99865.50;;;12.16;100.00
7157;BME280;3620;49.862;8.758;2023-02-19T09:15:51;99870.44;;;12.04;100.00
7157;BME280;3620;49.862;8.758;2023-02-19T09:18:17;99872.63;;;12.14;100.00
7157;BME280;3620;49.862;8.758;2023-02-19T09:20:44;99869.88;;;12.37;100.00
7157;BME280;3620;49.862;8.758;2023-02-19T09:23:10;99882.00;;;12.21;100.00
7157;BME280;3620;49.862;8.758;2023-02-19T09:25:37;99880.44;;;12.16;98.87
7157;BME280;3620;49.862;8.758;2023-02-19T09:28:03;99876.66;;;12.23;98.71
7157;BME280;3620;49.862;8.758;2023-02-19T09:30:31;99882.84;;;12.22;98.51
7157;BME280;3620;49.862;8.758;2023-02-19T09:32:58;99876.13;;;12.15;97.92
7157;BME280;3620;49.862;8.758;2023-02-19T09:35:24;99881.53;;;12.32;97.89
7157;BME280;3620;49.862;8.758;2023-02-19T09:37:51;99875.38;;;12.53;96.36
7157;BME280;3620;49.862;8.758;2023-02-19T09:40:18;99874.81;;;12.45;95.71
7157;BME280;3620;49.862;8.758;2023-02-19T09:42:46;99877.94;;;12.55;94.92
7157;BME280;3620;49.862;8.758;2023-02-19T09:45:18;99875.38;;;12.53;94.93
7157;BME280;3620;49.862;8.758;2023-02-19T09:47:48;99871.38;;;12.83;93.25
7157;BME280;3620;49.862;8.758;2023-02-19T09:50:20;99873.91;;;12.86;92.80
7157;BME280;3620;49.862;8.758;2023-02-19T09:52:50;99870.31;;;12.87;93.49
7157;BME280;3620;49.862;8.758;2023-02-19T09:55:29;99868.09;;;12.58;93.85
7157;BME280;3620;49.862;8.758;2023-02-19T09:57:58;99855.81;;;12.57;93.39
7157;BME280;3620;49.862;8.758;2023-02-19T10:00:26;99867.16;;;13.18;91.66
7157;BME280;3620;49.862;8.758;2023-02-19T10:03:01;99857.19;;;12.86;90.56
7157;BME280;3620;49.862;8.758;2023-02-19T10:05:30;99859.41;;;13.34;89.26
7157;BME280;3620;49.862;8.758;2023-02-19T10:07:57;99872.84;;;13.48;88.16
7157;BME280;3620;49.862;8.758;2023-02-19T10:10:28;99873.03;;;13.04;87.52
7157;BME280;3620;49.862;8.758;2023-02-19T10:13:01;99872.19;;;13.24;87.58
7157;BME280;3620;49.862;8.758;2023-02-19T10:15:38;99883.19;;;12.95;87.26
7157;BME280;3620;49.862;8.758;2023-02-19T10:18:09;99891.63;;;13.03;86.79
7157;BME280;3620;49.862;8.758;2023-02-19T10:20:35;99900.03;;;12.92;86.42
7157;BME280;3620;49.862;8.758;2023-02-19T10:23:04;99890.66;;;12.85;87.87
7157;BME280;3620;49.862;8.758;2023-02-19T10:25:32;99896.66;;;13.09;86.71
7157;BME280;3620;49.862;8.758;2023-02-19T10:27:59;99898.28;;;12.91;86.15
7157;BME280;3620;49.862;8.758;2023-02-19T10:30:29;99907.16;;;12.70;87.76
7157;BME280;3620;49.862;8.758;2023-02-19T10:32:58;99905.97;;;12.77;87.63
7157;BME280;3620;49.862;8.758;2023-02-19T10:35:27;99907.00;;;12.93;87.15
7157;BME280;3620;49.862;8.758;2023-02-19T10:37:54;99904.66;;;13.07;86.47
7157;BME280;3620;49.862;8.758;2023-02-19T10:40:24;99907.28;;;13.07;87.24
7157;BME280;3620;49.862;8.758;2023-02-19T10:42:53;99905.31;;;12.72;89.00
7157;BME280;3620;49.862;8.758;2023-02-19T10:45:22;99902.34;;;13.00;88.09
7157;BME280;3620;49.862;8.758;2023-02-19T10:47:50;99900.34;;;13.44;86.40
7157;BME280;3620;49.862;8.758;2023-02-19T10:50:23;99905.69;;;13.23;85.40
7157;BME280;3620;49.862;8.758;2023-02-19T10:52:54;99905.19;;;12.95;85.65
7157;BME280;3620;49.862;8.758;2023-02-19T10:55:30;99917.03;;;13.26;83.35
7157;BME280;3620;49.862;8.758;2023-02-19T10:58:24;99936.16;;;13.51;82.30
7157;BME280;3620;49.862;8.758;2023-02-19T11:04:27;99947.84;;;13.06;84.87
7157;BME280;3620;49.862;8.758;2023-02-19T11:07:12;99951.28;;;13.08;83.88
7157;BME280;3620;49.862;8.758;2023-02-19T11:09:58;99948.81;;;13.24;82.46
7157;BME280;3620;49.862;8.758;2023-02-19T11:16:04;99970.25;;;12.96;83.50
7157;BME280;3620;49.862;8.758;2023-02-19T11:18:40;99976.72;;;13.11;83.99
7157;BME280;3620;49.862;8.758;2023-02-19T11:21:23;99976.31;;;12.78;87.30
7157;BME280;3620;49.862;8.758;2023-02-19T11:23:54;99981.59;;;12.78;87.41
7157;BME280;3620;49.862;8.758;2023-02-19T11:26:24;99977.00;;;13.03;86.53
7157;BME280;3620;49.862;8.758;2023-02-19T11:28:54;99971.59;;;12.86;85.95
7157;BME280;3620;49.862;8.758;2023-02-19T11:31:23;99975.88;;;13.09;84.24
7157;BME280;3620;49.862;8.758;2023-02-19T11:33:55;99967.25;;;13.26;83.54
7157;BME280;3620;49.862;8.758;2023-02-19T11:36:27;99977.84;;;13.44;83.29
7157;BME280;3620;49.862;8.758;2023-02-19T11:38:55;99970.44;;;13.71;81.20
7157;BME280;3620;49.862;8.758;2023-02-19T11:41:34;99955.28;;;13.93;80.28
7157;BME280;3620;49.862;8.758;2023-02-19T11:44:16;99969.44;;;13.92;79.00
7157;BME280;3620;49.862;8.758;2023-02-19T11:46:58;99969.31;;;13.95;78.75
7157;BME280;3620;49.862;8.758;2023-02-19T11:49:36;99965.00;;;13.74;78.81
7157;BME280;3620;49.862;8.758;2023-02-19T11:52:17;99961.22;;;13.79;78.26
7157;BME280;3620;49.862;8.758;2023-02-19T11:54:51;99959.63;;;13.94;78.56
7157;BME280;3620;49.862;8.758;2023-02-19T11:57:38;99962.19;;;13.95;78.06
7157;BME280;3620;49.862;8.758;2023-02-19T12:00:23;99975.22;;;14.00;77.50
7157;BME280;3620;49.862;8.758;2023-02-19T12:03:03;99980.88;;;13.74;78.11
7157;BME280;3620;49.862;8.758;2023-02-19T12:05:46;99980.16;;;13.70;78.61
7157;BME280;3620;49.862;8.758;2023-02-19T12:11:34;99975.22;;;14.00;76.48
7157;BME280;3620;49.862;8.758;2023-02-19T12:14:26;99961.00;;;13.84;75.56
7157;BME280;3620;49.862;8.758;2023-02-19T12:17:02;99956.50;;;13.86;75.30
7157;BME280;3620;49.862;8.758;2023-02-19T12:19:44;99948.19;;;13.93;75.45
7157;BME280;3620;49.862;8.758;2023-02-19T12:22:27;99959.31;;;13.64;74.53
7157;BME280;3620;49.862;8.758;2023-02-19T12:25:24;99961.78;;;13.67;75.08
7157;BME280;3620;49.862;8.758;2023-02-19T12:28:10;99944.78;;;13.73;74.56
7157;BME280;3620;49.862;8.758;2023-02-19T12:31:02;99963.22;;;13.93;72.97
7157;BME280;3620;49.862;8.758;2023-02-19T12:36:36;99970.84;;;14.18;72.10
7157;BME280;3620;49.862;8.758;2023-02-19T12:39:13;99960.97;;;14.21;71.12
7157;BME280;3620;49.862;8.758;2023-02-19T12:41:48;99961.41;;;14.12;73.17
7157;BME280;3620;49.862;8.758;2023-02-19T12:44:18;99956.41;;;14.06;72.28
7157;BME280;3620;49.862;8.758;2023-02-19T12:46:52;99971.16;;;13.93;73.03
7157;BME280;3620;49.862;8.758;2023-02-19T12:49:26;99960.66;;;14.27;72.50
7157;BME280;3620;49.862;8.758;2023-02-19T12:51:57;99973.63;;;14.33;71.30
7157;BME280;3620;49.862;8.758;2023-02-19T12:54:27;99963.09;;;14.50;70.03
7157;BME280;3620;49.862;8.758;2023-02-19T12:56:59;99977.09;;;14.52;69.07
7157;BME280;3620;49.862;8.758;2023-02-19T12:59:30;99971.16;;;14.64;69.20
7157;BME280;3620;49.862;8.758;2023-02-19T13:02:05;99971.81;;;14.87;68.19
7157;BME280;3620;49.862;8.758;2023-02-19T13:04:41;99959.50;;;14.86;67.64
7157;BME280;3620;49.862;8.758;2023-02-19T13:07:13;99953.19;;;15.38;65.30
7157;BME280;3620;49.862;8.758;2023-02-19T13:09:46;99959.78;;;15.31;63.93
7157;BME280;3620;49.862;8.758;2023-02-19T13:12:19;99948.66;;;15.40;63.75
7157;BME280;3620;49.862;8.758;2023-02-19T13:14:48;99938.56;;;15.48;63.32
7157;BME280;3620;49.862;8.758;2023-02-19T13:17:21;99943.66;;;15.51;63.58
7157;BME280;3620;49.862;8.758;2023-02-19T13:19:52;99936.22;;;15.25;63.21
7157;BME280;3620;49.862;8.758;2023-02-19T13:22:26;99945.31;;;15.04;65.32
7157;BME280;3620;49.862;8.758;2023-02-19T13:25:12;99933.75;;;15.22;63.84
7157;BME280;3620;49.862;8.758;2023-02-19T13:28:03;99940.31;;;15.15;64.42
7157;BME280;3620;49.862;8.758;2023-02-19T13:30:42;99940.31;;;15.15;64.14
7157;BME280;3620;49.862;8.758;2023-02-19T13:33:25;99950.38;;;14.91;66.32
7157;BME280;3620;49.862;8.758;2023-02-19T13:36:08;99939.25;;;14.67;66.91
7157;BME280;3620;49.862;8.758;2023-02-19T13:38:37;99955.91;;;14.87;67.11
7157;BME280;3620;49.862;8.758;2023-02-19T13:41:05;99947.38;;;14.29;68.72
7157;BME280;3620;49.862;8.758;2023-02-19T13:43:34;99951.53;;;14.34;67.80
7157;BME280;3620;49.862;8.758;2023-02-19T13:46:05;99958.75;;;14.12;69.47
7157;BME280;3620;49.862;8.758;2023-02-19T13:48:36;99956.22;;;14.46;68.77
7157;BME280;3620;49.862;8.758;2023-02-19T13:51:38;99963.13;;;14.32;69.39